sensor_id;sensor_type;location;lat;lon;timestamp;pressure;altitude;pressure_sealevel;temperature;humidity
54262;BME280;40174;52.364;6.452;2022-10-18T00:01:52;102307.06;;;14.16;100.00
54262;BME280;40174;52.364;6.452;2022-10-18T00:04:19;102326.63;;;14.14;100.00
54262;BME280;40174;52.364;6.452;2022-10-18T00:06:46;102321.53;;;14.11;100.00
54262;BME280;40174;52.364;6.452;2022-10-18T00:09:14;102320.81;;;14.09;100.00
54262;BME280;40174;52.364;6.452;2022-10-18T00:11:40;102327.09;;;14.08;100.00
54262;BME280;40174;52.364;6.452;2022-10-18T00:14:07;102327.09;;;14.08;100.00
54262;BME280;40174;52.364;6.452;2022-10-18T00:16:34;102330.59;;;14.09;100.00
54262;BME280;40174;52.364;6.452;2022-10-18T00:19:00;102332.41;;;14.08;100.00
54262;BME280;40174;52.364;6.452;2022-10-18T00:21:27;102329.00;;;14.06;100.00
54262;BME280;40174;52.364;6.452;2022-10-18T00:23:53;102327.41;;;14.04;100.00
54262;BME280;40174;52.364;6.452;2022-10-18T00:26:24;102315.16;;;14.01;100.00
54262;BME280;40174;52.364;6.452;2022-10-18T00:28:53;102312.66;;;14.00;100.00
54262;BME280;40174;52.364;6.452;2022-10-18T00:31:22;102321.69;;;13.97;100.00
54262;BME280;40174;52.364;6.452;2022-10-18T00:33:50;102326.38;;;13.93;100.00
54262;BME280;40174;52.364;6.452;2022-10-18T00:36:18;102309.78;;;13.90;100.00
54262;BME280;40174;52.364;6.452;2022-10-18T00:38:45;102317.88;;;13.88;100.00
54262;BME280;40174;52.364;6.452;2022-10-18T00:41:21;102316.28;;;13.86;100.00
54262;BME280;40174;52.364;6.452;2022-10-18T00:43:58;102328.09;;;13.82;100.00
54262;BME280;40174;52.364;6.452;2022-10-18T00:46:27;102324.03;;;13.76;100.00
54262;BME280;40174;52.364;6.452;2022-10-18T00:48:55;102322.44;;;13.73;100.00
54262;BME280;40174;52.364;6.452;2022-10-18T00:51:25;102320.97;;;13.69;100.00
54262;BME280;40174;52.364;6.452;2022-10-18T00:53:52;102324.69;;;13.67;100.00
54262;BME280;40174;52.364;6.452;2022-10-18T00:56:19;102325.75;;;13.64;100.00
54262;BME280;40174;52.364;6.452;2022-10-18T00:58:47;102324.16;;;13.62;100.00
54262;BME280;40174;52.364;6.452;2022-10-18T01:01:16;102325.00;;;13.62;100.00
54262;BME280;40174;52.364;6.452;2022-10-18T01:03:42;102332.13;;;13.62;100.00
54262;BME280;40174;52.364;6.452;2022-10-18T01:06:09;102330.41;;;13.61;100.00
54262;BME280;40174;52.364;6.452;2022-10-18T01:08:57;102328.22;;;13.55;100.00
54262;BME280;40174;52.364;6.452;2022-10-18T01:11:36;102324.50;;;13.57;100.00
54262;BME280;40174;52.364;6.452;2022-10-18T02:24:04;102311.31;;;12.90;100.00
54262;BME280;40174;52.364;6.452;2022-10-18T02:26:32;102311.53;;;12.87;100.00
54262;BME280;40174;52.364;6.452;2022-10-18T02:28:59;102315.94;;;12.86;100.00
54262;BME280;40174;52.364;6.452;2022-10-18T02:31:28;102322.31;;;12.84;100.00
54262;BME280;40174;52.364;6.452;2022-10-18T02:33:59;102320.72;;;12.81;100.00
54262;BME280;40174;52.364;6.452;2022-10-18T02:36:29;102322.84;;;12.76;100.00
54262;BME280;40174;52.364;6.452;2022-10-18T02:39:01;102319.44;;;12.74;100.00
54262;BME280;40174;52.364;6.452;2022-10-18T02:41:31;102318.69;;;12.72;100.00
54262;BME280;40174;52.364;6.452;2022-10-18T02:43:58;102322.38;;;12.69;100.00
54262;BME280;40174;52.364;6.452;2022-10-18T02:46:24;102327.03;;;12.66;100.00
54262;BME280;40174;52.364;6.452;2022-10-18T02:48:51;102329.22;;;12.59;100.00
54262;BME280;40174;52.364;6.452;2022-10-18T02:51:17;102327.53;;;12.58;100.00
54262;BME280;40174;52.364;6.452;2022-10-18T02:53:44;102327.63;;;12.57;100.00
54262;BME280;40174;52.364;6.452;2022-10-18T02:56:11;102330.50;;;12.54;100.00
54262;BME280;40174;52.364;6.452;2022-10-18T02:58:38;102316.56;;;12.50;100.00
54262;BME280;40174;52.364;6.452;2022-10-18T03:01:05;102313.16;;;12.48;100.00
54262;BME280;40174;52.364;6.452;2022-10-18T03:03:32;102316.88;;;12.45;100.00
54262;BME280;40174;52.364;6.452;2022-10-18T03:05:58;102324.06;;;12.43;100.00
54262;BME280;40174;52.364;6.452;2022-10-18T03:08:25;102320.78;;;12.40;100.00
54262;BME280;40174;52.364;6.452;2022-10-18T03:10:52;102319.06;;;12.39;100.00
54262;BME280;40174;52.364;6.452;2022-10-18T03:13:19;102314.44;;;12.42;100.00
54262;BME280;40174;52.364;6.452;2022-10-18T03:15:47;102310.91;;;12.42;100.00
54262;BME280;40174;52.364;6.452;2022-10-18T03:18:14;102312.84;;;12.40;100.00
54262;BME280;40174;52.364;6.452;2022-10-18T03:20:40;102311.88;;;12.41;100.00
54262;BME280;40174;52.364;6.452;2022-10-18T03:23:07;102303.81;;;12.42;100.00
54262;BME280;40174;52.364;6.452;2022-10-18T03:25:34;102307.31;;;12.43;100.00
54262;BME280;40174;52.364;6.452;2022-10-18T03:28:00;102309.75;;;12.46;100.00
54262;BME280;40174;52.364;6.452;2022-10-18T03:30:27;102304.38;;;12.47;100.00
54262;BME280;40174;52.364;6.452;2022-10-18T03:32:55;102319.13;;;12.52;100.00
54262;BME280;40174;52.364;6.452;2022-10-18T03:35:21;102309.38;;;12.52;100.00
54262;BME280;40174;52.364;6.452;2022-10-18T03:37:48;102315.53;;;12.53;100.00
54262;BME280;40174;52.364;6.452;2022-10-18T03:40:15;102315.22;;;12.57;100.00
54262;BME280;40174;52.364;6.452;2022-10-18T03:42:41;102315.88;;;12.61;100.00
54262;BME280;40174;52.364;6.452;2022-10-18T03:45:08;102309.72;;;12.60;100.00
54262;BME280;40174;52.364;6.452;2022-10-18T03:47:35;102318.44;;;12.62;100.00
54262;BME280;40174;52.364;6.452;2022-10-18T03:50:03;102317.56;;;12.62;100.00
54262;BME280;40174;52.364;6.452;2022-10-18T03:52:30;102326.09;;;12.67;100.00
54262;BME280;40174;52.364;6.452;2022-10-18T03:54:57;102321.63;;;12.67;100.00
54262;BME280;40174;52.364;6.452;2022-10-18T03:57:23;102325.59;;;12.75;100.00
54262;BME280;40174;52.364;6.452;2022-10-18T03:59:50;102322.00;;;12.76;100.00
54262;BME280;40174;52.364;6.452;2022-10-18T04:02:17;102321.56;;;12.82;100.00
54262;BME280;40174;52.364;6.452;2022-10-18T04:04:43;102329.44;;;12.83;100.00
54262;BME280;40174;52.364;6.452;2022-10-18T04:07:11;102324.88;;;12.85;100.00
54262;BME280;40174;52.364;6.452;2022-10-18T04:09:38;102328.38;;;12.86;100.00
54262;BME280;40174;52.364;6.452;2022-10-18T04:12:04;102319.56;;;12.85;100.00
54262;BME280;40174;52.364;6.452;2022-10-18T04:14:31;102317.66;;;12.87;100.00
54262;BME280;40174;52.364;6.452;2022-10-18T04:16:58;102331.78;;;12.88;100.00
54262;BME280;40174;52.364;6.452;2022-10-18T04:19:25;102326.38;;;12.89;100.00
54262;BME280;40174;52.364;6.452;2022-10-18T04:21:52;102327.13;;;12.92;100.00
54262;BME280;40174;52.364;6.452;2022-10-18T04:24:20;102328.06;;;12.90;100.00
54262;BME280;40174;52.364;6.452;2022-10-18T04:26:47;102325.31;;;12.92;100.00
54262;BME280;40174;52.364;6.452;2022-10-18T04:29:13;102320.94;;;12.91;100.00
54262;BME280;40174;52.364;6.452;2022-10-18T04:31:40;102319.16;;;12.92;100.00
54262;BME280;40174;52.364;6.452;2022-10-18T04:34:07;102319.03;;;12.93;100.00
54262;BME280;40174;52.364;6.452;2022-10-18T04:36:34;102320.84;;;12.93;100.00
54262;BME280;40174;52.364;6.452;2022-10-18T04:39:01;102320.00;;;12.92;100.00
54262;BME280;40174;52.364;6.452;2022-10-18T04:41:28;102327.13;;;12.92;100.00
54262;BME280;40174;52.364;6.452;2022-10-18T04:43:55;102331.47;;;12.93;100.00
54262;BME280;40174;52.364;6.452;2022-10-18T04:46:22;102323.50;;;12.93;100.00
54262;BME280;40174;52.364;6.452;2022-10-18T04:48:48;102321.81;;;12.92;100.00
54262;BME280;40174;52.364;6.452;2022-10-18T04:51:15;102306.00;;;12.90;100.00
54262;BME280;40174;52.364;6.452;2022-10-18T04:53:41;102309.72;;;12.87;100.00
54262;BME280;40174;52.364;6.452;2022-10-18T04:56:08;102314.19;;;12.87;100.00
54262;BME280;40174;52.364;6.452;2022-10-18T04:58:36;102311.69;;;12.84;100.00
54262;BME280;40174;52.364;6.452;2022-10-18T05:01:04;102318.06;;;12.81;100.00
54262;BME280;40174;52.364;6.452;2022-10-18T05:03:30;102320.72;;;12.81;100.00
54262;BME280;40174;52.364;6.452;2022-10-18T05:05:57;102317.22;;;12.81;100.00
54262;BME280;40174;52.364;6.452;2022-10-18T05:08:23;102303.22;;;12.79;100.00
54262;BME280;40174;52.364;6.452;2022-10-18T05:10:50;102305.19;;;12.75;100.00
54262;BME280;40174;52.364;6.452;2022-10-18T05:13:16;102299.25;;;12.72;100.00
54262;BME280;40174;52.364;6.452;2022-10-18T05:15:46;102312.53;;;12.72;100.00
54262;BME280;40174;52.364;6.452;2022-10-18T05:18:12;102317.94;;;12.70;100.00
54262;BME280;40174;52.364;6.452;2022-10-18T05:20:39;102305.91;;;12.64;100.00
54262;BME280;40174;52.364;6.452;2022-10-18T05:23:05;102313.31;;;12.59;100.00
54262;BME280;40174;52.364;6.452;2022-10-18T05:25:36;102314.47;;;12.55;100.00
54262;BME280;40174;52.364;6.452;2022-10-18T05:28:03;102321.88;;;12.50;100.00
54262;BME280;40174;52.364;6.452;2022-10-18T05:30:30;102324.81;;;12.45;100.00
54262;BME280;40174;52.364;6.452;2022-10-18T05:32:58;102322.38;;;12.42;100.00
54262;BME280;40174;52.364;6.452;2022-10-18T05:35:25;102328.84;;;12.38;100.00
54262;BME280;40174;52.364;6.452;2022-10-18T05:37:51;102337.41;;;12.42;100.00
54262;BME280;40174;52.364;6.452;2022-10-18T05:40:18;102331.19;;;12.43;100.00
54262;BME280;40174;52.364;6.452;2022-10-18T05:42:44;102331.94;;;12.45;100.00
54262;BME280;40174;52.364;6.452;2022-10-18T05:45:11;102345.00;;;12.48;100.00
54262;BME280;40174;52.364;6.452;2022-10-18T05:47:37;102348.41;;;12.50;100.00
54262;BME280;40174;52.364;6.452;2022-10-18T05:50:06;102346.78;;;12.47;100.00
54262;BME280;40174;52.364;6.452;2022-10-18T05:52:32;102342.34;;;12.48;100.00
54262;BME280;40174;52.364;6.452;2022-10-18T05:55:00;102345.84;;;12.48;100.00
54262;BME280;40174;52.364;6.452;2022-10-18T05:57:26;102349.34;;;12.49;100.00
54262;BME280;40174;52.364;6.452;2022-10-18T05:59:53;102358.34;;;12.46;100.00
54262;BME280;40174;52.364;6.452;2022-10-18T06:02:20;102362.72;;;12.47;100.00
54262;BME280;40174;52.364;6.452;2022-10-18T06:04:46;102380.44;;;12.47;100.00
54262;BME280;40174;52.364;6.452;2022-10-18T06:07:14;102376.91;;;12.46;100.00
54262;BME280;40174;52.364;6.452;2022-10-18T06:09:41;102371.72;;;12.45;100.00
54262;BME280;40174;52.364;6.452;2022-10-18T06:12:08;102387.63;;;12.45;100.00
54262;BME280;40174;52.364;6.452;2022-10-18T06:14:35;102388.69;;;12.42;100.00
54262;BME280;40174;52.364;6.452;2022-10-18T06:17:02;102389.59;;;12.41;100.00
54262;BME280;40174;52.364;6.452;2022-10-18T06:19:28;102398.53;;;12.40;100.00
54262;BME280;40174;52.364;6.452;2022-10-18T06:21:55;102404.59;;;12.42;100.00
54262;BME280;40174;52.364;6.452;2022-10-18T06:24:23;102402.03;;;12.41;100.00
54262;BME280;40174;52.364;6.452;2022-10-18T06:26:50;102406.47;;;12.40;100.00
54262;BME280;40174;52.364;6.452;2022-10-18T06:29:17;102409.31;;;12.37;100.00
54262;BME280;40174;52.364;6.452;2022-10-18T06:31:44;102410.06;;;12.39;100.00
54262;BME280;40174;52.364;6.452;2022-10-18T06:34:10;102416.41;;;12.37;100.00
54262;BME280;40174;52.364;6.452;2022-10-18T06:36:37;102413.75;;;12.37;100.00
54262;BME280;40174;52.364;6.452;2022-10-18T06:39:03;102424.28;;;12.38;100.00
54262;BME280;40174;52.364;6.452;2022-10-18T06:41:31;102419.75;;;12.40;100.00
54262;BME280;40174;52.364;6.452;2022-10-18T06:44:16;102419.75;;;12.40;100.00
54262;BME280;40174;52.364;6.452;2022-10-18T06:46:44;102423.31;;;12.39;100.00
54262;BME280;40174;52.364;6.452;2022-10-18T06:49:12;102422.47;;;12.39;100.00
54262;BME280;40174;52.364;6.452;2022-10-18T06:51:39;102426.09;;;12.38;100.00
54262;BME280;40174;52.364;6.452;2022-10-18T06:54:06;102424.19;;;12.40;100.00
54262;BME280;40174;52.364;6.452;2022-10-18T06:56:34;102423.31;;;12.39;100.00
54262;BME280;40174;52.364;6.452;2022-10-18T06:59:01;102432.16;;;12.40;100.00
54262;BME280;40174;52.364;6.452;2022-10-18T07:01:28;102441.88;;;12.39;100.00
54262;BME280;40174;52.364;6.452;2022-10-18T07:03:54;102434.03;;;12.38;100.00
54262;BME280;40174;52.364;6.452;2022-10-18T07:06:22;102442.09;;;12.36;100.00
54262;BME280;40174;52.364;6.452;2022-10-18T07:08:49;102432.41;;;12.35;100.00
54262;BME280;40174;52.364;6.452;2022-10-18T07:11:19;102441.31;;;12.34;100.00
54262;BME280;40174;52.364;6.452;2022-10-18T07:13:49;102439.63;;;12.33;100.00
54262;BME280;40174;52.364;6.452;2022-10-18T07:16:17;102441.41;;;12.33;100.00
54262;BME280;40174;52.364;6.452;2022-10-18T07:18:46;102438.88;;;12.31;100.00
54262;BME280;40174;52.364;6.452;2022-10-18T07:21:15;102446.72;;;12.33;100.00
54262;BME280;40174;52.364;6.452;2022-10-18T07:23:43;102453.06;;;12.30;100.00
54262;BME280;40174;52.364;6.452;2022-10-18T07:26:12;102459.22;;;12.31;100.00
54262;BME280;40174;52.364;6.452;2022-10-18T07:28:39;102461.09;;;12.28;100.00
54262;BME280;40174;52.364;6.452;2022-10-18T07:31:10;102464.72;;;12.27;100.00
54262;BME280;40174;52.364;6.452;2022-10-18T07:33:37;102467.38;;;12.27;100.00
54262;BME280;40174;52.364;6.452;2022-10-18T07:36:06;102484.13;;;12.28;100.00
54262;BME280;40174;52.364;6.452;2022-10-18T07:38:34;102489.34;;;12.30;100.00
54262;BME280;40174;52.364;6.452;2022-10-18T07:41:02;102480.34;;;12.32;100.00
54262;BME280;40174;52.364;6.452;2022-10-18T07:43:30;102490.00;;;12.33;100.00
54262;BME280;40174;52.364;6.452;2022-10-18T07:45:58;102489.06;;;12.34;100.00
54262;BME280;40174;52.364;6.452;2022-10-18T07:48:27;102489.72;;;12.38;100.00
54262;BME280;40174;52.364;6.452;2022-10-18T07:50:56;102492.25;;;12.39;100.00
54262;BME280;40174;52.364;6.452;2022-10-18T07:53:23;102496.53;;;12.42;100.00
54262;BME280;40174;52.364;6.452;2022-10-18T07:55:49;102499.00;;;12.45;100.00
54262;BME280;40174;52.364;6.452;2022-10-18T07:58:16;102496.16;;;12.48;100.00
54262;BME280;40174;52.364;6.452;2022-10-18T08:00:43;102490.75;;;12.50;100.00
54262;BME280;40174;52.364;6.452;2022-10-18T08:03:09;102489.72;;;12.52;100.00
54262;BME280;40174;52.364;6.452;2022-10-18T08:05:37;102500.22;;;12.54;100.00
54262;BME280;40174;52.364;6.452;2022-10-18T08:08:03;102502.69;;;12.57;100.00
54262;BME280;40174;52.364;6.452;2022-10-18T08:10:30;102503.66;;;12.56;100.00
54262;BME280;40174;52.364;6.452;2022-10-18T08:12:56;102517.47;;;12.61;100.00
54262;BME280;40174;52.364;6.452;2022-10-18T08:15:23;102503.44;;;12.59;100.00
54262;BME280;40174;52.364;6.452;2022-10-18T08:17:50;102501.63;;;12.59;100.00
54262;BME280;40174;52.364;6.452;2022-10-18T08:20:16;102512.81;;;12.64;100.00
54262;BME280;40174;52.364;6.452;2022-10-18T08:22:44;102521.44;;;12.68;100.00
54262;BME280;40174;52.364;6.452;2022-10-18T08:25:11;102518.41;;;12.74;100.00
54262;BME280;40174;52.364;6.452;2022-10-18T08:27:37;102514.78;;;12.75;100.00
54262;BME280;40174;52.364;6.452;2022-10-18T08:30:05;102508.63;;;12.75;100.00
54262;BME280;40174;52.364;6.452;2022-10-18T08:32:33;102518.97;;;12.79;100.00
54262;BME280;40174;52.364;6.452;2022-10-18T08:35:00;102527.59;;;12.83;100.00
54262;BME280;40174;52.364;6.452;2022-10-18T08:37:26;102527.38;;;12.86;100.00
54262;BME280;40174;52.364;6.452;2022-10-18T08:39:54;102514.88;;;12.88;100.00
54262;BME280;40174;52.364;6.452;2022-10-18T08:42:49;102511.09;;;12.92;100.00
54262;BME280;40174;52.364;6.452;2022-10-18T08:45:19;102519.41;;;13.00;100.00
54262;BME280;40174;52.364;6.452;2022-10-18T08:47:46;102535.06;;;13.05;100.00
54262;BME280;40174;52.364;6.452;2022-10-18T08:50:18;102521.66;;;13.06;100.00
54262;BME280;40174;52.364;6.452;2022-10-18T08:52:50;102537.88;;;13.16;100.00
54262;BME280;40174;52.364;6.452;2022-10-18T08:55:23;102542.75;;;13.22;100.00
54262;BME280;40174;52.364;6.452;2022-10-18T08:57:51;102535.38;;;13.27;100.00
54262;BME280;40174;52.364;6.452;2022-10-18T09:00:19;102537.56;;;13.35;100.00
54262;BME280;40174;52.364;6.452;2022-10-18T09:02:59;102531.72;;;13.43;100.00
54262;BME280;40174;52.364;6.452;2022-10-18T09:05:33;102523.91;;;13.54;100.00
54262;BME280;40174;52.364;6.452;2022-10-18T09:08:25;102531.84;;;13.68;100.00
54262;BME280;40174;52.364;6.452;2022-10-18T09:11:04;102541.19;;;13.74;100.00
54262;BME280;40174;52.364;6.452;2022-10-18T09:13:54;102529.66;;;13.88;100.00
54262;BME280;40174;52.364;6.452;2022-10-18T09:16:27;102534.13;;;14.00;100.00
54262;BME280;40174;52.364;6.452;2022-10-18T09:19:04;102547.44;;;14.13;100.00
54262;BME280;40174;52.364;6.452;2022-10-18T09:21:39;102534.44;;;14.21;100.00
54262;BME280;40174;52.364;6.452;2022-10-18T09:24:11;102547.16;;;14.30;100.00
54262;BME280;40174;52.364;6.452;2022-10-18T09:26:42;102554.78;;;14.48;100.00
54262;BME280;40174;52.364;6.452;2022-10-18T09:29:28;102546.19;;;14.57;100.00
54262;BME280;40174;52.364;6.452;2022-10-18T09:32:03;102541.28;;;14.64;100.00
54262;BME280;40174;52.364;6.452;2022-10-18T09:34:38;102523.72;;;14.74;100.00
54262;BME280;40174;52.364;6.452;2022-10-18T09:37:10;102536.47;;;14.82;100.00
54262;BME280;40174;52.364;6.452;2022-10-18T09:39:38;102542.00;;;14.91;100.00
54262;BME280;40174;52.364;6.452;2022-10-18T09:42:13;102540.84;;;14.95;100.00
54262;BME280;40174;52.364;6.452;2022-10-18T09:44:47;102535.75;;;15.16;100.00
54262;BME280;40174;52.364;6.452;2022-10-18T09:47:17;102538.38;;;15.29;100.00
54262;BME280;40174;52.364;6.452;2022-10-18T09:49:48;102548.75;;;15.45;100.00
54262;BME280;40174;52.364;6.452;2022-10-18T09:52:19;102550.69;;;15.67;100.00
54262;BME280;40174;52.364;6.452;2022-10-18T09:54:51;102538.72;;;15.73;100.00
54262;BME280;40174;52.364;6.452;2022-10-18T09:57:25;102541.69;;;15.81;100.00
54262;BME280;40174;52.364;6.452;2022-10-18T09:59:55;102552.94;;;15.85;100.00
54262;BME280;40174;52.364;6.452;2022-10-18T10:02:23;102558.09;;;15.99;100.00
54262;BME280;40174;52.364;6.452;2022-10-18T10:04:50;102556.53;;;16.08;100.00
54262;BME280;40174;52.364;6.452;2022-10-18T10:07:20;102551.72;;;16.24;100.00
54262;BME280;40174;52.364;6.452;2022-10-18T10:09:49;102566.38;;;16.30;100.00
54262;BME280;40174;52.364;6.452;2022-10-18T10:12:27;102554.41;;;16.35;100.00
54262;BME280;40174;52.364;6.452;2022-10-18T10:15:06;102553.56;;;16.46;100.00
54262;BME280;40174;52.364;6.452;2022-10-18T10:17:33;102559.88;;;16.56;100.00
54262;BME280;40174;52.364;6.452;2022-10-18T10:20:03;102564.25;;;16.69;100.00
54262;BME280;40174;52.364;6.452;2022-10-18T10:22:34;102564.50;;;16.77;100.00
54262;BME280;40174;52.364;6.452;2022-10-18T10:25:01;102568.66;;;16.81;100.00
54262;BME280;40174;52.364;6.452;2022-10-18T10:27:36;102575.44;;;16.85;100.00
54262;BME280;40174;52.364;6.452;2022-10-18T10:30:22;102576.78;;;17.02;100.00
54262;BME280;40174;52.364;6.452;2022-10-18T10:32:50;102585.16;;;17.09;100.00
54262;BME280;40174;52.364;6.452;2022-10-18T10:35:23;102581.75;;;17.07;100.00
54262;BME280;40174;52.364;6.452;2022-10-18T10:37:50;102582.84;;;17.15;100.00
54262;BME280;40174;52.364;6.452;2022-10-18T10:40:19;102595.31;;;17.26;100.00
54262;BME280;40174;52.364;6.452;2022-10-18T10:42:59;102592.63;;;17.37;100.00
54262;BME280;40174;52.364;6.452;2022-10-18T10:45:29;102593.50;;;17.38;100.00
54262;BME280;40174;52.364;6.452;2022-10-18T10:48:03;102598.69;;;17.39;100.00
54262;BME280;40174;52.364;6.452;2022-10-18T10:50:33;102596.13;;;17.49;100.00
54262;BME280;40174;52.364;6.452;2022-10-18T10:53:23;102595.59;;;17.55;100.00
54262;BME280;40174;52.364;6.452;2022-10-18T10:55:52;102588.53;;;17.65;100.00
54262;BME280;40174;52.364;6.452;2022-10-18T10:58:21;102593.50;;;17.81;100.00
54262;BME280;40174;52.364;6.452;2022-10-18T11:00:48;102588.81;;;17.95;100.00
54262;BME280;40174;52.364;6.452;2022-10-18T11:03:17;102585.41;;;18.14;100.00
54262;BME280;40174;52.364;6.452;2022-10-18T11:05:46;102585.06;;;18.18;100.00
54262;BME280;40174;52.364;6.452;2022-10-18T11:08:15;102593.09;;;18.18;100.00
54262;BME280;40174;52.364;6.452;2022-10-18T11:10:53;102593.69;;;18.32;100.00
54262;BME280;40174;52.364;6.452;2022-10-18T11:13:32;102597.19;;;18.43;100.00
54262;BME280;40174;52.364;6.452;2022-10-18T11:16:12;102593.03;;;18.60;100.00
54262;BME280;40174;52.364;6.452;2022-10-18T11:18:42;102587.44;;;18.63;100.00
54262;BME280;40174;52.364;6.452;2022-10-18T11:21:15;102593.59;;;18.85;100.00
54262;BME280;40174;52.364;6.452;2022-10-18T11:23:43;102590.66;;;18.88;100.00
54262;BME280;40174;52.364;6.452;2022-10-18T11:26:23;102595.34;;;19.05;100.00
54262;BME280;40174;52.364;6.452;2022-10-18T11:29:07;102595.53;;;19.14;100.00
54262;BME280;40174;52.364;6.452;2022-10-18T11:31:40;102595.13;;;19.18;96.35
54262;BME280;40174;52.364;6.452;2022-10-18T11:34:21;102586.66;;;19.23;94.29
54262;BME280;40174;52.364;6.452;2022-10-18T11:36:59;102592.97;;;19.12;87.37
54262;BME280;40174;52.364;6.452;2022-10-18T11:39:34;102586.00;;;19.30;93.15
54262;BME280;40174;52.364;6.452;2022-10-18T11:42:11;102588.50;;;19.22;85.35
54262;BME280;40174;52.364;6.452;2022-10-18T11:44:45;102589.06;;;19.26;87.12
54262;BME280;40174;52.364;6.452;2022-10-18T11:47:20;102595.72;;;19.31;84.83
54262;BME280;40174;52.364;6.452;2022-10-18T11:50:01;102601.50;;;19.37;86.21
54262;BME280;40174;52.364;6.452;2022-10-18T11:52:40;102597.72;;;19.59;86.91
54262;BME280;40174;52.364;6.452;2022-10-18T11:55:25;102600.19;;;19.71;88.28
54262;BME280;40174;52.364;6.452;2022-10-18T11:57:59;102596.66;;;19.81;86.14
54262;BME280;40174;52.364;6.452;2022-10-18T12:00:39;102592.28;;;19.89;81.48
54262;BME280;40174;52.364;6.452;2022-10-18T12:03:32;102589.56;;;19.99;79.27
54262;BME280;40174;52.364;6.452;2022-10-18T12:06:03;102587.88;;;20.08;81.33
54262;BME280;40174;52.364;6.452;2022-10-18T12:08:35;102584.47;;;20.15;77.45
54262;BME280;40174;52.364;6.452;2022-10-18T12:11:09;102585.16;;;20.18;76.46
54262;BME280;40174;52.364;6.452;2022-10-18T12:13:44;102594.53;;;20.13;73.15
54262;BME280;40174;52.364;6.452;2022-10-18T12:16:14;102592.09;;;20.10;71.28
54262;BME280;40174;52.364;6.452;2022-10-18T12:18:51;102584.06;;;20.10;76.58
54262;BME280;40174;52.364;6.452;2022-10-18T12:21:20;102584.59;;;20.24;77.63
54262;BME280;40174;52.364;6.452;2022-10-18T12:23:50;102592.38;;;20.27;74.41
54262;BME280;40174;52.364;6.452;2022-10-18T12:26:18;102581.63;;;20.37;78.01
54262;BME280;40174;52.364;6.452;2022-10-18T12:28:57;102584.56;;;20.43;75.18
54262;BME280;40174;52.364;6.452;2022-10-18T12:31:30;102583.41;;;20.46;75.60
54262;BME280;40174;52.364;6.452;2022-10-18T12:34:14;102585.66;;;20.60;74.24
54262;BME280;40174;52.364;6.452;2022-10-18T12:36:55;102580.72;;;20.65;73.60
54262;BME280;40174;52.364;6.452;2022-10-18T12:39:28;102587.88;;;20.74;71.43
54262;BME280;40174;52.364;6.452;2022-10-18T12:41:56;102581.81;;;20.72;69.59
54262;BME280;40174;52.364;6.452;2022-10-18T12:44:27;102576.81;;;20.77;71.86
54262;BME280;40174;52.364;6.452;2022-10-18T12:46:58;102577.78;;;20.59;72.33
54262;BME280;40174;52.364;6.452;2022-10-18T12:49:28;102571.38;;;20.60;72.42
54262;BME280;40174;52.364;6.452;2022-10-18T12:51:56;102578.88;;;20.56;71.06
54262;BME280;40174;52.364;6.452;2022-10-18T12:54:26;102567.19;;;20.38;68.61
54262;BME280;40174;52.364;6.452;2022-10-18T12:56:54;102582.59;;;20.35;70.63
54262;BME280;40174;52.364;6.452;2022-10-18T12:59:48;102580.78;;;20.26;69.66
54262;BME280;40174;52.364;6.452;2022-10-18T13:02:34;102578.25;;;20.15;72.25
54262;BME280;40174;52.364;6.452;2022-10-18T13:05:02;102575.59;;;20.05;74.17
54262;BME280;40174;52.364;6.452;2022-10-18T13:07:47;102577.03;;;19.90;74.62
54262;BME280;40174;52.364;6.452;2022-10-18T13:10:37;102572.03;;;19.66;76.55
54262;BME280;40174;52.364;6.452;2022-10-18T13:13:35;102575.69;;;19.45;76.97
54262;BME280;40174;52.364;6.452;2022-10-18T13:16:07;102573.97;;;19.15;76.00
54262;BME280;40174;52.364;6.452;2022-10-18T13:18:48;102578.41;;;18.95;77.76
54262;BME280;40174;52.364;6.452;2022-10-18T13:21:22;102580.91;;;18.87;80.55
54262;BME280;40174;52.364;6.452;2022-10-18T13:24:07;102574.34;;;18.70;78.35
54262;BME280;40174;52.364;6.452;2022-10-18T13:26:45;102578.09;;;18.58;79.39
54262;BME280;40174;52.364;6.452;2022-10-18T13:29:34;102579.00;;;18.47;80.99
54262;BME280;40174;52.364;6.452;2022-10-18T13:32:20;102580.19;;;18.33;80.89
54262;BME280;40174;52.364;6.452;2022-10-18T13:34:50;102576.88;;;18.20;80.02
54262;BME280;40174;52.364;6.452;2022-10-18T13:37:19;102578.78;;;18.08;83.34
54262;BME280;40174;52.364;6.452;2022-10-18T13:39:49;102577.84;;;17.98;79.97
54262;BME280;40174;52.364;6.452;2022-10-18T13:42:30;102576.66;;;17.91;84.39
54262;BME280;40174;52.364;6.452;2022-10-18T13:51:25;102594.94;;;17.74;85.03
54262;BME280;40174;52.364;6.452;2022-10-18T13:54:02;102589.88;;;17.60;75.84
54262;BME280;40174;52.364;6.452;2022-10-18T13:56:50;102596.72;;;17.53;75.39
54262;BME280;40174;52.364;6.452;2022-10-18T13:59:39;102591.16;;;17.44;78.11
54262;BME280;40174;52.364;6.452;2022-10-18T14:02:32;102588.53;;;17.33;77.80
54262;BME280;40174;52.364;6.452;2022-10-18T14:05:11;102579.53;;;17.23;78.48
54262;BME280;40174;52.364;6.452;2022-10-18T14:07:41;102588.28;;;17.25;81.25
54262;BME280;40174;52.364;6.452;2022-10-18T14:10:12;102595.31;;;17.26;84.59
54262;BME280;40174;52.364;6.452;2022-10-18T14:12:45;102595.56;;;17.23;86.54
54262;BME280;40174;52.364;6.452;2022-10-18T14:15:16;102593.53;;;17.15;86.69
54262;BME280;40174;52.364;6.452;2022-10-18T14:17:46;102594.13;;;17.08;89.18